Impacts METAR Board
IDs:

KDTW - Detroit Metro/Wayne, MI, US

Updated at: 2200 UTC 14 Aug 2018
Potential Impact None Slight Moderate High
Time 14/10Z 14/11Z 14/12Z 14/13Z 14/14Z 14/15Z 14/16Z 14/17Z 14/18Z 14/19Z 14/20Z 14/21Z 14/22Z
Temp67 67 70 74 79 82 84 86 86 87 87 87 88
Dewpt61 61 63 63 62 61 62 62 60 61 60 61 61
Altim29.98 29.99 29.99 29.98 29.99 30.00 29.99 29.98 29.98 29.97 29.95 29.94 29.94
VIS4 4 5 5 7 7 7 10 8 8 10 10 9
CIG230 230 -- -- -- -- -- -- -- -- -- -- --
CoverBKNBKNSCTSCTSCTFEWCLRCLRFEWFEWFEWFEWSCT
FltCatMVFRMVFRMVFRMVFRVFRVFRVFRVFRVFRVFRVFRVFRVFR
WXHZHZHZHZ------------------
WDir26022029000270260240230270240250230
WSpd3 4 4 0 0 5 6 7 10 8 8 10 8
WGst-- -- -- -- -- -- -- -- -- -- 18 -- --
Raw hourly METARs
KDTW 140953Z COR 26003KT 4SM HZ FEW065 SCT150 BKN230 19/16 A2998 RMK AO2 SLP149 T01940161
KDTW 141053Z 22004KT 4SM HZ SCT150 BKN230 19/16 A2999 RMK AO2 SLP151 T01940161
KDTW 141153Z 29004KT 5SM HZ FEW150 SCT230 21/17 A2999 RMK AO2 SLP151 T02110172 10228 20189 52003
KDTW 141253Z 00000KT 5SM HZ FEW150 SCT230 23/17 A2998 RMK AO2 SLP149 T02330172
KDTW 141353Z 00000KT 7SM SCT230 26/17 A2999 RMK AO2 SLP152 T02610167
KDTW 141453Z 27005KT 7SM FEW230 28/16 A3000 RMK AO2 SLP153 T02780161 53002
KDTW 141553Z 26006KT 7SM CLR 29/17 A2999 RMK AO2 SLP150 T02890167
KDTW 141653Z 24007KT 10SM CLR 30/17 A2998 RMK AO2 SLP148 T03000167
KDTW 141753Z 23010KT 8SM FEW040 30/16 A2998 RMK AO2 SLP147 T03000156 10300 20211 56006
KDTW 141853Z 27008KT 8SM FEW050 31/16 A2997 RMK AO2 SLP144 T03060161
KDTW 141953Z 24008G18KT 10SM FEW060 31/16 A2995 RMK AO2 SLP136 T03060156
KDTW 142053Z 25010KT 10SM FEW060 31/16 A2994 RMK AO2 SLP133 T03060161 58015
KDTW 142153Z 23008KT 9SM SCT060 31/16 A2994 RMK AO2 SLP132 T03110161



Page loaded:  22:03 UTC  |   03:03 PM Pacific  |   04:03 PM Mountain  |   05:03 PM Central  |   06:03 PM Eastern

 

ADVISORIES

FORECASTS

FORECASTS

OBSERVATIONS

USER TOOLS

ABOUT US